Date,TemperatureHighF,TemperatureAvgF,TemperatureLowF,DewpointHighF,DewpointAvgF,DewpointLowF,HumidityHigh,HumidityAvg,HumidityLow,PressureMaxIn,PressureMinIn,WindSpeedMaxMPH,WindSpeedAvgMPH,GustSpeedMaxMPH,PrecipitationSumIn
2014-1-1,71.6,53.9,59.1,66.0,32.0,-99.9,93,70,72,30.22,30.03,14,-180,19,0.00
2014-1-2,76.3,69.2,62.1,71.5,66.6,57.1,96,91,83,30.03,29.85,24,5,26,0.15
2014-1-3,62.5,51.2,44.8,57.3,38.3,29.0,83,63,42,30.26,29.97,29,8,31,0.00
2014-1-4,66.5,57.2,44.9,60.8,51.8,38.5,89,82,75,30.22,30.06,19,5,19,0.00
2014-1-5,79.5,69.3,61.8,68.8,64.3,59.8,95,85,66,30.06,29.94,14,2,15,0.00
2014-1-6,72.8,61.5,48.8,69.8,56.0,34.2,96,83,57,30.31,29.95,26,7,28,0.01
2014-1-7,50.9,44.0,37.9,36.1,23.4,15.9,63,45,28,30.42,30.25,22,7,23,0.00
2014-1-8,66.0,52.5,39.3,56.7,45.0,27.2,85,76,60,30.38,30.21,21,7,22,0.00
2014-1-9,74.9,65.2,56.5,69.7,62.1,54.1,95,90,78,30.26,30.13,19,6,19,0.13
2014-1-10,79.2,72.3,67.7,71.7,68.1,65.6,93,87,73,30.17,30.04,14,3,14,0.00
2014-1-11,76.5,71.1,66.5,71.9,68.6,64.7,95,92,85,30.09,29.94,22,5,22,0.25
2014-1-12,71.1,63.4,54.1,64.9,51.8,43.8,95,68,39,30.19,30.01,16,4,18,0.00
2014-1-13,77.3,64.7,51.6,69.5,59.7,45.9,91,84,74,30.15,29.97,16,4,16,0.00
2014-1-14,71.3,66.2,60.0,68.4,63.1,56.8,95,90,84,30.03,29.92,14,4,16,0.05
2014-1-15,63.3,58.1,52.3,57.1,51.3,48.5,93,78,64,30.08,29.96,34,2,34,0.08
2014-1-16,56.1,50.5,41.3,53.3,39.6,35.3,93,67,52,30.17,29.99,24,6,25,0.05
2014-1-17,60.8,50.1,38.1,55.1,42.6,34.9,89,76,58,30.23,30.12,10,2,11,0.00
2014-1-18,60.7,52.4,39.8,56.0,41.1,31.6,91,67,43,30.29,30.12,18,4,19,0.00
2014-1-19,68.3,53.0,36.8,58.2,47.2,33.6,93,81,66,30.26,30.14,12,2,12,0.00
2014-1-20,67.8,58.6,49.1,61.5,55.3,47.5,95,89,68,30.17,30.05,13,1,13,0.01
2014-1-21,69.9,62.7,55.2,64.2,58.9,48.6,95,88,70,30.05,29.86,20,4,23,0.20
2014-1-22,58.3,50.8,40.3,48.6,41.0,35.0,88,69,54,30.21,29.94,22,6,27,0.00
2014-1-23,64.4,49.9,38.1,45.3,36.1,29.5,91,64,30,30.34,30.18,17,3,19,0.00
2014-1-24,62.9,51.3,43.7,40.2,33.2,25.3,77,52,30,30.45,30.26,23,6,24,0.00
2014-1-25,65.3,54.2,46.2,52.9,46.7,39.4,91,77,57,30.27,30.05,11,2,12,0.00
2014-1-26,64.9,61.3,55.1,61.8,58.8,52.2,93,92,87,30.08,29.97,8,2,8,0.04
2014-1-27,72.9,66.8,62.0,66.9,63.4,59.3,94,89,80,30.03,29.95,11,2,14,0.00
2014-1-28,74.3,65.4,57.0,67.2,61.9,55.3,95,89,76,30.07,29.96,14,2,14,0.01
2014-1-29,64.0,56.8,46.5,61.2,53.5,44.4,94,89,71,30.17,29.97,21,6,21,0.49
2014-1-30,53.9,49.8,46.9,51.3,48.0,45.3,94,93,91,30.17,30.07,14,5,15,0.33
2014-1-31,69.3,59.7,52.2,65.9,57.3,50.0,94,92,88,30.10,29.99,15,4,17,0.43
2014-2-1,78.3,68.7,62.9,71.6,63.5,57.3,90,83,73,30.12,30.03,11,3,12,0.00
2014-2-2,79.7,70.0,63.6,71.6,60.8,52.2,80,73,62,30.14,30.02,11,2,13,0.01
2014-2-3,79.6,70.3,63.7,71.8,55.0,41.3,78,59,39,30.11,30.01,14,2,14,0.01
2014-2-4,80.8,72.1,65.4,72.2,54.2,35.4,77,55,26,30.10,29.99,12,3,15,0.01
2014-2-5,77.1,71.4,67.5,61.2,8.4,-35.1,59,16,1,30.07,29.99,16,3,18,0.00
2014-2-6,79.0,69.3,58.3,69.9,35.5,-38.4,75,46,1,30.13,30.00,19,3,19,0.00
2014-2-7,68.4,59.6,53.2,60.5,47.4,36.5,76,64,44,30.16,30.07,18,6,18,0.00
2014-2-8,70.8,62.3,59.0,52.8,15.2,-40.2,53,20,1,30.12,30.04,16,4,18,0.02
2014-2-9,69.6,60.5,56.0,61.0,32.4,-0.5,76,43,9,30.15,30.03,12,3,16,0.00
2014-2-10,75.2,62.0,52.0,61.7,36.9,-10.1,75,47,7,30.12,30.02,10,2,12,0.00
2014-2-11,71.8,62.5,52.8,63.1,38.6,-22.4,75,47,3,30.08,30.00,12,2,13,0.00
2014-2-12,73.2,63.1,55.9,62.1,-8.4,-43.5,73,18,1,30.04,29.74,22,4,22,1.13
2014-2-13,66.5,60.0,54.1,54.4,41.5,-38.3,76,63,1,29.99,29.73,24,7,25,0.00
2014-2-14,61.7,53.6,44.4,50.7,29.1,-22.2,76,47,5,30.10,29.97,11,2,11,0.00
2014-2-15,67.9,60.5,47.7,59.1,45.5,-44.8,76,61,1,30.16,29.94,19,6,24,0.00
2014-2-16,66.7,55.4,44.1,55.1,35.1,-13.0,76,52,8,30.21,30.12,13,2,13,0.00
2014-2-17,75.6,59.0,48.1,59.8,40.0,12.4,76,51,21,30.23,30.14,9,2,10,0.00
2014-2-18,75.9,63.7,52.8,62.3,51.1,2.4,90,67,11,30.24,30.13,12,2,14,0.10
2014-2-19,78.0,67.0,58.8,64.2,60.2,55.8,93,80,61,30.18,30.06,16,2,16,0.00
2014-2-20,82.0,70.4,58.9,68.7,64.0,57.8,97,82,59,30.15,30.02,15,4,20,0.10
2014-2-21,79.6,72.9,68.0,73.1,70.0,66.4,97,91,80,30.06,29.99,20,5,22,0.00
2014-2-22,77.4,72.1,69.0,73.1,70.3,68.4,98,94,85,30.10,30.00,11,2,11,0.21
2014-2-23,75.7,69.6,67.3,71.2,68.4,66.7,99,96,85,30.08,29.98,12,2,12,0.10
2014-2-24,77.1,70.8,66.7,70.2,67.5,65.7,97,90,73,30.06,29.92,13,2,13,0.00
2014-2-25,74.2,67.5,62.6,68.8,65.1,62.0,99,92,78,30.06,29.96,13,2,13,0.00
2014-2-26,75.1,66.8,59.3,71.1,65.4,58.9,99,95,86,29.97,29.74,17,3,19,0.09
2014-2-27,66.8,61.0,53.2,64.3,57.0,50.3,97,87,73,29.98,29.78,17,4,18,0.08
2014-2-28,64.4,57.1,50.2,51.4,46.7,42.7,94,70,49,30.11,29.94,13,3,13,0.00
2014-3-1,72.4,60.3,48.4,59.3,51.5,44.4,94,75,40,30.22,30.07,14,3,14,0.10
2014-3-2,78.0,65.7,56.6,63.9,59.2,53.7,95,81,47,30.20,30.06,14,3,15,0.00
2014-3-3,76.2,67.5,57.8,66.9,63.1,56.4,97,86,70,30.09,29.99,14,3,15,0.00
2014-3-4,76.7,69.7,62.8,69.0,65.9,61.9,99,89,66,30.04,29.97,14,3,14,0.01
2014-3-5,79.0,70.1,62.8,69.9,65.6,61.8,98,86,71,30.03,29.93,12,3,13,0.00
2014-3-6,69.5,67.0,64.6,67.3,65.0,62.6,98,93,85,29.99,29.72,18,5,21,0.82
2014-3-7,68.9,64.1,54.6,67.6,58.5,49.5,96,82,72,30.05,29.78,17,6,21,0.00
2014-3-8,68.0,59.2,43.5,57.4,52.3,41.9,95,78,56,30.19,30.05,12,4,16,0.10
2014-3-9,74.0,63.7,53.6,63.1,57.8,52.5,97,82,59,30.20,30.08,12,3,14,0.00
2014-3-10,73.0,64.7,56.4,60.7,56.7,53.1,97,77,53,30.14,30.00,10,2,12,0.00
2014-3-11,75.1,66.6,56.0,67.3,61.5,53.7,96,85,48,30.03,29.84,12,3,14,0.00
2014-3-12,76.5,71.7,68.5,71.5,68.5,62.5,95,90,79,29.89,29.75,16,6,18,0.05
2014-3-13,69.0,61.5,55.0,64.3,48.5,36.8,85,63,34,30.20,29.88,22,7,24,0.00
2014-3-14,76.6,60.9,48.1,56.8,49.7,43.2,85,69,39,30.27,30.12,18,4,21,0.00
2014-3-15,78.0,69.5,55.5,62.0,57.8,52.4,90,68,48,30.18,30.01,13,3,14,0.10
2014-3-16,78.4,70.7,60.7,67.4,63.1,57.1,90,78,61,30.03,29.77,31,6,31,0.10
2014-3-17,74.8,72.7,68.7,72.2,70.1,66.4,98,92,79,29.78,29.65,26,8,31,1.50
2014-3-18,72.8,66.6,58.9,71.2,58.9,53.5,95,77,58,30.04,29.66,27,5,27,0.41
2014-3-19,71.8,63.0,52.8,62.0,56.7,51.3,98,81,67,30.12,30.01,21,3,21,0.00
2014-3-20,73.9,66.2,60.9,65.0,60.3,56.4,87,81,69,30.08,29.97,15,5,18,0.00
2014-3-21,86.8,70.9,61.5,69.0,62.4,58.4,91,76,45,30.07,29.96,17,4,17,0.10
2014-3-22,75.5,69.6,62.7,68.0,65.3,61.3,97,86,75,30.08,29.98,11,3,11,0.10
2014-3-23,78.4,71.2,66.4,72.2,67.7,65.2,97,89,69,30.05,29.97,15,2,16,0.10
2014-3-24,70.4,67.2,64.7,68.0,65.4,63.5,98,94,85,30.08,29.90,11,2,12,1.37
2014-3-25,72.3,66.9,63.2,69.8,60.7,48.1,98,82,56,30.05,29.84,23,5,24,0.44
2014-3-26,65.8,57.5,48.6,49.8,33.9,24.3,65,42,28,30.29,30.05,20,7,24,0.00
2014-3-27,64.9,57.8,51.0,61.2,52.1,43.6,92,81,65,30.31,30.19,10,5,14,0.10
2014-3-28,78.2,73.1,63.4,68.6,66.2,59.4,90,79,69,30.19,30.00,18,5,20,0.10
2014-3-29,76.0,71.7,67.7,73.2,69.1,63.5,97,92,75,30.02,29.89,32,6,32,0.58
2014-3-30,70.3,64.6,56.9,67.6,54.9,45.4,94,72,42,30.11,29.94,20,6,22,0.00
2014-3-31,75.1,62.7,51.8,58.1,52.5,45.4,97,73,38,30.16,30.08,12,2,13,0.00
2014-4-1,79.5,66.3,54.9,64.0,58.8,53.3,95,78,46,30.18,30.09,13,3,13,0.00
2014-4-2,76.9,67.9,59.3,64.6,61.2,57.9,96,80,56,30.19,30.09,13,3,13,0.10
2014-4-3,77.8,69.5,60.5,65.5,62.6,59.1,95,80,64,30.14,30.02,11,4,16,0.00
2014-4-4,79.8,70.9,63.2,68.4,65.5,61.6,95,84,63,30.07,29.99,10,3,19,0.10
2014-4-5,79.8,72.4,62.2,70.1,66.7,61.2,97,83,62,30.05,29.95,12,2,13,0.00
2014-4-6,80.3,72.9,64.7,70.6,67.2,63.8,98,83,65,30.02,29.92,20,3,21,0.00
2014-4-7,82.1,75.5,68.1,75.1,71.0,66.0,94,86,66,29.94,29.82,24,6,24,0.00
2014-4-8,77.6,72.7,67.9,74.0,68.5,55.9,96,87,62,29.91,29.73,24,7,26,0.89
2014-4-9,70.0,67.3,62.0,58.1,55.2,51.2,79,65,52,30.18,29.89,23,7,25,0.20
2014-4-10,79.6,67.8,56.0,58.7,54.7,49.3,94,66,36,30.27,30.16,13,3,13,0.00
2014-4-11,80.8,68.8,56.3,66.0,59.1,52.8,88,72,50,30.24,30.09,12,3,12,0.00
2014-4-12,82.9,73.0,65.2,69.7,65.2,58.9,95,78,52,30.17,30.04,14,4,15,0.10
2014-4-13,84.6,72.6,63.9,70.3,65.0,59.9,94,78,50,30.11,29.98,17,4,17,0.04
2014-4-14,81.8,74.9,68.6,72.8,70.0,66.1,96,85,70,30.01,29.87,16,4,16,0.00
2014-4-15,80.8,74.4,67.3,75.9,71.6,62.0,97,91,83,29.95,29.81,23,6,25,0.00
2014-4-16,76.8,62.8,56.1,63.8,56.0,50.6,87,79,61,30.10,29.95,18,6,20,0.00
2014-4-17,84.7,73.3,65.2,72.2,67.6,60.1,95,83,65,30.14,30.03,27,8,27,0.34
2014-4-18,79.9,71.3,68.0,73.2,69.0,66.2,98,93,75,30.08,29.90,16,5,25,0.58
2014-4-19,73.1,69.7,64.9,70.5,63.9,58.4,98,82,69,30.00,29.87,18,6,19,0.00
2014-4-20,72.7,66.8,60.8,64.3,61.7,59.2,96,84,70,30.06,29.96,14,4,15,0.00
2014-4-21,72.1,65.9,60.3,63.4,59.7,57.5,92,81,68,30.08,29.95,13,3,13,0.00
2014-4-22,74.9,67.5,58.7,66.0,61.4,57.5,97,82,64,30.00,29.85,12,2,13,0.00
2014-4-23,75.9,70.9,63.7,67.5,64.5,61.0,94,81,68,29.97,29.88,12,3,13,0.10
2014-4-24,78.0,71.2,62.5,69.2,65.9,61.6,97,84,66,30.02,29.91,12,2,12,0.00
2014-4-25,80.5,72.5,63.7,71.0,67.2,62.8,98,84,63,30.03,29.93,11,2,11,0.00
2014-4-26,82.3,74.8,64.0,72.3,68.9,63.0,97,83,67,30.02,29.93,14,3,15,0.00
2014-4-27,83.5,76.0,67.9,73.9,70.0,66.0,96,83,58,30.01,29.91,14,3,15,0.00
2014-4-28,85.7,77.9,70.9,75.1,72.3,65.5,96,84,51,29.97,29.86,21,4,21,0.00
2014-4-29,86.6,79.2,72.1,75.7,73.2,69.9,96,83,64,29.99,29.84,21,5,21,0.00
2014-4-30,85.9,79.1,72.7,77.9,73.8,69.4,95,84,71,30.04,29.91,17,4,18,0.00
2014-5-1,85.2,78.2,70.2,78.2,74.1,68.3,95,87,77,30.02,29.93,18,4,19,0.00
2014-5-2,81.8,75.7,69.7,76.9,73.4,69.1,98,93,83,29.94,29.85,20,4,22,3.29
2014-5-3,76.5,70.3,65.8,72.7,68.8,63.4,98,95,85,30.01,29.86,18,3,18,1.16
2014-5-4,83.9,75.0,57.6,66.5,61.0,52.7,97,65,37,30.10,29.99,19,4,19,0.10
2014-5-5,84.8,74.0,62.4,69.4,63.7,60.0,96,72,45,30.08,29.95,13,3,14,0.00
2014-5-6,84.4,75.4,63.3,71.7,66.7,60.5,92,75,51,30.03,29.95,11,2,12,0.00
2014-5-7,84.9,77.5,68.5,71.3,68.5,65.6,91,75,56,30.11,29.99,16,3,18,0.00
2014-5-8,88.8,78.6,69.2,72.3,68.7,61.9,92,73,42,30.16,30.06,17,5,19,0.00
2014-5-9,85.7,77.5,69.6,73.0,69.9,66.9,96,78,55,30.15,30.02,18,4,19,0.00
2014-5-10,86.7,78.6,71.0,74.1,70.6,66.0,91,78,52,30.12,30.00,23,5,23,0.00
2014-5-11,86.9,79.9,73.5,74.1,71.4,66.5,92,76,59,30.12,29.99,14,3,15,0.00
2014-5-12,89.8,80.1,70.8,71.6,68.4,66.4,89,69,48,30.11,29.99,21,6,24,0.00
2014-5-13,89.9,78.9,71.2,75.1,71.3,68.2,93,79,55,30.05,29.93,19,6,24,0.28
2014-5-14,89.4,78.1,72.3,76.3,72.6,69.3,96,84,56,30.03,29.91,22,5,22,0.29
2014-5-15,83.7,79.1,75.1,77.6,74.0,70.6,96,84,77,29.98,29.89,20,5,20,0.49
2014-5-16,78.5,75.1,68.6,58.8,52.2,43.7,70,46,30,30.11,30.01,12,6,22,0.00
2014-5-17,83.8,73.5,61.7,59.7,55.4,50.2,86,56,32,30.14,30.04,9,5,16,0.00
2014-5-18,86.1,74.5,62.8,63.4,59.8,56.1,81,62,42,30.14,30.03,10,5,17,0.00
2014-5-19,86.7,76.3,63.1,65.0,62.1,60.1,93,64,42,30.15,30.06,10,5,20,0.00
2014-5-20,88.4,77.2,66.3,67.8,63.5,56.4,93,65,35,30.18,30.08,8,4,16,0.00
2014-5-21,83.7,75.0,65.2,69.2,65.2,62.1,90,72,50,30.18,30.08,7,4,12,0.00
2014-5-22,82.7,76.1,66.6,73.0,68.0,63.3,89,76,61,30.15,30.04,7,3,13,0.00
2014-5-23,82.5,77.4,68.3,75.0,71.8,66.8,96,83,71,30.11,30.02,7,3,13,0.00
2014-5-24,85.6,78.6,70.0,74.8,72.6,67.4,97,83,56,30.09,29.99,6,3,10,0.00
2014-5-25,88.0,80.5,73.7,78.9,74.4,67.4,94,82,54,30.08,29.99,7,3,11,0.27
2014-5-26,89.8,78.6,71.5,75.3,70.9,65.1,93,78,46,30.15,30.04,14,3,18,0.09
2014-5-27,86.1,77.0,70.7,74.5,71.0,68.1,96,83,61,30.13,30.01,14,3,18,0.00
2014-5-28,86.1,78.6,71.4,74.7,71.4,68.2,95,80,60,30.06,29.96,15,3,15,0.00
2014-5-29,86.4,77.9,71.0,76.1,71.1,67.6,94,80,63,30.02,29.94,19,4,19,0.00
2014-5-30,86.1,76.9,71.2,76.9,71.5,68.5,94,84,65,30.02,29.92,15,4,16,0.09
2014-5-31,87.8,77.4,70.9,76.0,72.1,68.6,96,85,58,30.02,29.92,18,3,18,0.11
2014-6-1,90.1,77.2,72.5,76.3,72.8,70.5,97,87,56,30.03,29.97,20,4,20,0.38
2014-6-2,83.0,77.6,73.0,73.7,71.5,68.4,95,82,66,30.08,29.99,24,6,24,0.00
2014-6-3,84.0,77.8,72.2,69.6,67.8,65.8,86,72,58,30.06,29.95,22,4,22,0.00
2014-6-4,86.5,78.0,71.1,71.5,67.7,64.1,80,71,53,29.99,29.90,13,3,15,0.00
2014-6-5,85.3,79.1,71.4,74.7,72.1,67.9,94,80,65,29.96,29.87,14,3,14,0.00
2014-6-6,87.1,81.3,73.1,75.1,72.8,69.3,95,76,59,29.99,29.88,11,2,12,0.00
2014-6-7,87.2,81.3,73.4,76.3,73.7,70.9,92,78,64,30.02,29.89,12,3,12,0.00
2014-6-8,85.8,80.7,73.3,75.3,73.5,70.3,94,79,66,30.02,29.88,20,3,22,0.07
2014-6-9,86.4,80.5,73.1,77.1,74.3,70.3,96,82,69,29.99,29.87,12,2,12,0.00
2014-6-10,87.6,81.4,71.4,78.0,74.5,67.7,94,80,61,30.01,29.93,17,3,17,0.13
2014-6-11,86.0,77.7,71.9,77.8,73.5,69.7,96,88,72,30.01,29.91,21,3,21,0.63
2014-6-12,86.8,79.8,71.3,77.2,74.2,69.8,97,84,66,30.00,29.92,17,5,18,0.01
2014-6-13,85.6,79.4,72.7,77.6,74.4,67.9,95,85,68,30.02,29.93,21,4,24,0.52
2014-6-14,87.0,79.4,71.8,78.7,73.9,70.0,95,84,68,30.09,29.96,24,3,24,0.14
2014-6-15,88.4,78.8,71.2,77.7,72.5,68.7,97,82,63,30.13,30.01,23,4,26,0.00
2014-6-16,92.3,79.8,72.4,76.2,71.3,68.5,96,77,48,30.15,30.03,20,2,20,0.78
2014-6-17,90.9,79.4,71.2,75.2,71.4,67.9,97,79,48,30.13,30.03,19,3,22,0.09
2014-6-18,88.5,76.6,70.9,75.0,71.2,69.4,97,85,57,30.11,30.03,27,3,28,0.73
2014-6-19,87.8,78.4,70.5,76.8,72.9,69.7,98,84,65,30.11,30.03,13,3,13,0.04
2014-6-20,86.0,80.5,71.6,77.0,74.0,70.4,96,81,71,30.08,29.97,13,2,13,0.00
2014-6-21,86.7,82.8,79.1,77.3,74.9,73.1,85,77,69,30.02,29.91,13,4,13,0.00
2014-6-22,86.9,83.1,79.8,76.8,74.8,72.5,83,76,65,30.00,29.89,14,4,14,0.00
2014-6-23,87.4,83.4,80.9,77.0,74.9,71.9,83,76,63,30.08,29.94,15,4,15,0.00
2014-6-24,88.5,83.6,78.3,76.5,74.4,70.2,86,74,57,30.13,30.04,12,2,12,0.00
2014-6-25,90.8,84.3,77.8,78.0,76.0,70.5,92,77,53,30.13,30.00,11,2,13,0.00
2014-6-26,92.4,84.3,77.1,79.0,75.6,70.4,92,76,55,30.10,29.95,18,2,18,0.00
2014-6-27,94.0,82.3,74.0,79.6,74.9,70.3,96,80,50,30.11,30.01,17,3,20,1.36
2014-6-28,90.0,82.3,74.0,80.1,75.1,68.5,97,80,58,30.14,30.04,14,2,18,0.00
2014-6-29,92.5,85.5,77.4,81.1,77.0,74.0,93,77,57,30.13,30.00,16,3,17,0.00
2014-6-30,93.0,83.7,75.5,78.7,74.8,70.5,90,76,52,30.07,29.88,21,3,21,0.09
2014-7-1,90.3,83.4,76.8,80.3,76.6,71.6,91,80,65,29.95,29.84,25,3,28,0.18
2014-7-2,91.6,83.8,75.5,80.7,76.4,73.7,95,79,59,29.95,29.86,15,3,17,0.00
2014-7-3,89.0,82.9,75.2,78.7,76.1,70.5,95,80,69,30.08,29.93,18,4,23,0.21
2014-7-4,88.1,82.3,75.1,78.2,75.9,73.6,96,82,68,30.11,30.02,15,3,19,0.36
2014-7-5,88.4,82.3,75.5,78.3,75.1,73.2,94,80,65,30.11,30.04,15,3,15,0.00
2014-7-6,88.2,80.4,74.4,78.1,74.4,71.4,95,83,66,30.08,30.00,19,4,19,0.00
2014-7-7,88.4,80.0,73.3,77.7,73.7,70.9,96,82,58,30.11,30.00,13,2,14,0.00
2014-7-8,88.1,82.0,75.0,78.6,75.4,72.2,95,81,68,30.13,30.04,16,3,20,0.09
2014-7-9,88.9,80.3,73.1,79.1,75.1,71.9,97,85,68,30.12,30.03,9,2,10,0.01
2014-7-10,89.0,81.8,74.4,77.2,74.7,71.9,95,80,59,30.11,30.04,11,3,11,0.00
2014-7-11,88.6,79.9,74.1,77.9,74.3,70.3,96,84,65,30.13,30.05,17,2,18,0.05
2014-7-12,91.3,79.6,72.9,78.3,73.8,67.3,97,83,60,30.11,30.04,23,3,23,1.25
2014-7-13,89.7,80.2,73.2,78.8,73.8,71.1,96,82,65,30.09,30.01,15,3,19,0.00
2014-7-14,89.9,82.5,75.5,78.6,74.9,70.9,93,79,57,30.08,30.00,13,3,13,0.00
2014-7-15,87.2,81.4,74.7,78.4,75.8,73.0,96,84,70,30.02,29.93,15,3,16,1.26
2014-7-16,87.5,80.3,74.8,78.4,75.3,71.9,97,85,70,29.99,29.90,26,3,31,1.68
2014-7-17,87.5,83.6,78.1,79.1,76.0,73.8,89,78,68,30.01,29.91,18,4,20,0.08
2014-7-18,88.8,82.6,74.0,76.7,74.3,71.7,95,77,62,30.06,29.98,11,2,11,0.00
2014-7-19,90.5,83.5,75.2,80.0,75.6,72.6,95,78,58,30.05,29.97,13,2,13,0.00
2014-7-20,91.6,84.3,76.1,81.3,76.3,73.5,94,78,59,30.05,29.97,14,3,14,0.00
2014-7-21,90.5,82.9,75.4,80.6,75.8,71.8,94,80,61,30.04,29.95,19,3,19,0.00
2014-7-22,89.1,81.1,73.2,78.8,75.0,71.4,95,82,66,30.06,29.96,10,2,12,0.00
2014-7-23,89.8,83.4,76.3,79.3,76.6,75.0,96,81,67,30.07,29.98,12,2,12,0.00
2014-7-24,90.5,84.6,78.4,78.6,76.9,74.5,94,78,63,30.04,29.95,13,2,13,0.00
2014-7-25,90.5,85.0,78.6,79.5,77.1,75.4,92,78,66,30.07,29.99,13,3,15,0.00
2014-7-26,89.7,84.7,77.5,80.0,76.7,74.4,92,78,66,30.09,30.01,10,2,13,0.00
2014-7-27,90.1,85.2,78.0,79.0,76.7,74.3,94,77,63,30.09,30.03,12,2,13,0.00
2014-7-28,90.5,86.7,83.0,79.4,76.6,74.6,80,72,61,30.06,29.97,16,4,16,0.00
2014-7-29,89.7,86.1,83.1,80.2,77.2,74.3,82,75,67,29.99,29.92,19,5,19,0.03
2014-7-30,90.4,85.3,77.5,77.8,75.0,70.4,90,72,58,29.97,29.90,12,3,12,0.00
2014-7-31,89.3,83.2,74.3,74.6,71.3,67.1,88,68,49,29.98,29.91,11,2,12,0.00
2014-8-1,91.1,84.4,75.2,75.7,72.3,68.5,89,68,49,29.97,29.89,11,2,12,0.00
2014-8-2,93.2,84.1,76.6,80.2,76.4,72.7,94,78,56,29.96,29.86,16,3,19,0.00
2014-8-3,91.5,84.2,76.8,79.8,76.6,73.1,94,79,61,29.94,29.82,15,3,17,0.00
2014-8-4,88.9,81.7,77.7,79.3,76.7,74.1,93,85,71,29.92,29.85,15,2,18,0.01
2014-8-5,89.9,85.2,79.8,80.1,77.7,74.7,91,78,66,30.06,29.92,12,3,12,0.00
2014-8-6,90.0,83.8,76.2,79.6,77.0,73.7,96,81,66,30.05,29.96,13,2,13,0.38
2014-8-7,90.5,84.4,76.8,79.1,76.5,73.6,95,78,63,30.01,29.93,13,2,14,0.00
2014-8-8,90.9,82.8,76.1,80.0,75.7,71.9,94,80,62,30.04,29.94,16,3,16,0.00
2014-8-9,89.8,83.3,75.4,78.8,75.8,71.8,94,79,63,30.06,29.97,15,4,15,0.02
2014-8-10,90.2,84.0,77.6,78.7,76.4,74.4,95,79,62,30.06,29.98,16,3,16,0.00
2014-8-11,90.0,83.9,77.1,79.2,75.5,73.3,93,77,61,30.06,29.97,15,3,18,0.00
2014-8-12,90.5,84.1,76.5,79.1,75.4,73.6,93,76,62,30.02,29.93,15,4,16,0.00
2014-8-13,90.7,84.6,78.3,79.3,76.6,74.6,91,77,64,30.01,29.94,15,3,15,0.00
2014-8-14,88.0,84.9,80.0,79.9,77.3,74.4,89,78,70,30.03,29.95,20,3,20,0.15
2014-8-15,85.2,79.2,74.1,78.4,75.7,71.7,96,89,75,30.04,29.95,13,2,13,0.38
2014-8-16,88.7,82.0,74.5,79.6,76.8,73.3,97,85,69,30.09,29.98,11,2,14,0.29
2014-8-17,90.8,85.9,76.4,80.5,76.7,72.0,95,75,56,30.10,30.02,10,2,10,0.01
2014-8-18,91.4,84.2,76.8,80.0,76.9,75.3,95,80,62,30.07,29.96,11,2,11,0.00
2014-8-19,91.6,84.9,76.8,78.9,76.6,74.6,94,77,61,30.04,29.95,11,2,13,0.00
2014-8-20,91.8,84.9,76.7,79.1,76.8,74.2,93,77,61,30.09,29.97,12,2,14,0.00
2014-8-21,94.8,83.5,76.0,80.0,75.9,72.1,92,79,52,30.11,30.01,14,3,18,0.20
2014-8-22,91.8,83.1,74.4,81.2,75.3,72.5,95,78,60,30.10,29.94,12,2,14,0.01
2014-8-23,94.3,84.5,75.0,81.8,74.9,71.9,94,74,51,29.98,29.82,15,2,15,0.00
2014-8-24,92.2,85.4,76.6,81.2,76.3,70.7,91,75,58,29.87,29.73,15,3,15,0.00
2014-8-25,94.2,85.0,78.5,77.6,75.0,70.8,93,73,51,29.84,29.73,20,6,23,0.00
2014-8-26,93.6,83.7,75.6,75.7,71.7,64.7,93,70,43,29.92,29.82,24,6,24,0.00
2014-8-27,93.2,83.3,73.8,77.4,72.4,67.1,92,71,43,29.97,29.89,15,3,15,0.00
2014-8-28,94.8,81.8,75.5,79.8,75.5,69.2,95,83,47,29.99,29.89,27,4,27,1.42
2014-8-29,90.4,81.6,76.8,81.0,76.5,72.1,96,85,66,30.07,29.94,13,2,17,0.01
2014-8-30,94.8,81.3,74.2,80.3,75.4,71.7,97,84,55,30.11,29.98,15,3,15,0.95
2014-8-31,94.1,81.5,74.5,79.7,75.6,72.3,98,84,51,30.11,30.01,16,3,16,0.13
2014-9-1,92.7,81.5,75.0,78.8,75.0,71.0,95,82,56,30.10,29.99,20,3,24,0.00
2014-9-2,89.8,80.7,75.5,78.3,74.8,72.4,96,83,65,30.07,29.94,17,2,18,0.77
2014-9-3,91.9,80.1,72.7,76.0,73.5,71.0,97,82,53,30.02,29.92,18,2,18,0.16
2014-9-4,89.1,81.0,73.6,77.8,74.6,72.3,96,82,61,30.08,29.99,15,3,15,0.01
2014-9-5,88.4,80.8,74.6,78.7,74.6,72.0,95,82,66,30.11,30.00,16,3,17,0.00
2014-9-6,89.4,79.4,73.3,78.3,73.7,71.2,95,83,65,30.05,29.93,16,3,18,0.00
2014-9-7,89.6,79.4,74.2,77.7,74.2,70.9,97,85,64,30.00,29.91,17,3,20,0.13
2014-9-8,88.8,80.0,73.9,78.6,74.3,72.0,95,83,64,30.05,29.95,10,3,11,0.00
2014-9-9,88.7,79.6,74.1,77.6,74.0,70.7,95,84,66,30.04,29.93,16,3,17,0.06
2014-9-10,91.7,80.2,73.5,76.3,73.9,72.3,97,83,56,30.00,29.90,18,3,18,0.01
2014-9-11,89.5,81.3,74.0,76.4,74.3,72.5,95,80,61,30.01,29.92,9,2,11,0.02
2014-9-12,89.9,81.2,74.9,77.9,75.1,73.3,96,83,64,29.99,29.86,20,4,20,0.00
2014-9-13,90.2,79.4,74.5,77.0,73.5,71.2,96,83,54,30.06,29.93,16,5,17,0.35
2014-9-14,86.2,77.3,73.1,76.9,73.9,71.9,97,90,71,30.12,30.01,11,3,12,0.18
2014-9-15,89.6,78.2,73.7,76.7,73.4,72.0,96,86,60,30.14,30.06,10,2,10,0.00
2014-9-16,90.2,81.3,75.1,76.3,74.1,68.8,94,80,50,30.10,29.96,16,2,16,0.00
2014-9-17,81.2,77.5,74.2,77.0,74.3,72.0,97,90,77,29.99,29.86,12,2,16,0.32
2014-9-18,90.4,78.4,71.9,76.1,73.4,71.3,98,86,58,29.93,29.85,11,2,11,0.01
2014-9-19,81.1,75.4,70.7,76.9,73.2,69.8,98,93,84,29.94,29.86,12,4,12,0.62
2014-9-20,81.9,75.3,70.6,74.9,72.5,70.0,99,92,74,29.93,29.84,10,2,12,0.50
2014-9-21,86.1,81.1,73.7,77.4,75.0,72.5,97,82,71,30.00,29.89,13,3,14,0.03
2014-9-22,85.8,76.3,72.6,78.4,73.9,69.5,97,93,70,30.01,29.94,18,2,21,0.55
2014-9-23,85.2,76.6,71.2,77.3,73.5,70.2,98,91,72,30.01,29.92,15,2,15,0.01
2014-9-24,88.0,76.7,71.9,76.2,73.4,71.0,97,90,64,30.06,29.96,11,3,12,0.54
2014-9-25,89.1,78.4,72.2,77.2,73.7,70.7,96,86,64,30.06,29.93,19,4,21,0.00
2014-9-26,88.5,78.9,73.7,79.2,74.9,72.6,97,88,66,29.99,29.89,18,3,24,0.66
2014-9-27,89.5,77.4,73.4,78.9,74.5,72.5,98,91,65,30.00,29.89,17,3,18,1.64
2014-9-28,88.8,78.1,73.5,79.6,75.0,72.8,99,91,67,30.00,29.87,16,4,16,0.24
2014-9-29,86.8,77.3,73.8,78.8,74.8,72.4,98,92,72,29.94,29.82,25,2,27,1.19
2014-9-30,86.8,78.9,74.5,79.0,75.9,73.9,99,91,74,29.85,29.79,13,2,19,1.14
2014-10-1,87.0,81.7,76.3,78.1,76.4,75.0,98,84,73,29.97,29.81,12,2,12,0.01
2014-10-2,87.5,80.2,73.8,78.5,74.9,72.4,98,85,64,30.02,29.93,13,2,13,0.00
2014-10-3,87.0,81.2,74.5,78.6,75.8,73.0,97,84,70,30.03,29.93,13,3,14,0.00
2014-10-4,83.7,78.2,72.3,77.5,71.8,59.3,96,81,56,29.96,29.84,20,4,20,1.00
2014-10-5,77.9,69.7,61.2,62.1,52.0,45.3,80,55,36,30.03,29.90,16,4,18,0.00
2014-10-6,82.5,71.8,62.3,70.0,62.8,55.4,86,74,60,30.06,29.96,15,3,15,0.00
2014-10-7,85.3,76.0,70.8,76.6,70.8,67.5,97,85,68,30.07,29.98,15,4,17,1.05
2014-10-8,89.0,76.8,69.7,75.7,71.4,68.2,97,85,53,30.12,30.01,9,2,11,0.00
2014-10-9,89.4,80.0,71.6,72.6,70.5,68.3,95,75,50,30.08,29.96,14,3,17,0.00
2014-10-10,89.8,79.9,69.7,76.2,69.6,65.1,95,73,45,30.05,29.94,15,4,15,0.00
2014-10-11,88.1,79.0,71.1,75.7,72.3,69.7,96,81,56,30.02,29.93,10,3,14,0.00
2014-10-12,88.5,78.8,70.3,75.0,71.6,69.1,96,80,55,30.04,29.96,11,4,16,0.00
2014-10-13,89.5,78.8,73.0,77.8,72.9,70.0,95,83,59,30.05,29.94,18,5,18,0.42
2014-10-14,85.3,76.8,73.4,79.0,74.0,70.9,97,92,77,30.02,29.89,17,3,17,0.34
2014-10-15,82.8,75.9,68.0,75.1,71.9,64.3,98,88,67,29.97,29.89,12,2,12,0.09
2014-10-16,81.0,74.1,64.0,65.8,63.4,61.5,96,70,55,29.97,29.87,18,3,18,0.00
2014-10-17,80.3,71.4,62.0,62.6,59.6,54.6,92,69,42,29.99,29.91,12,2,12,0.00
2014-10-18,80.5,70.6,60.1,67.3,63.2,58.6,96,79,58,29.99,29.90,16,2,16,0.00
2014-10-19,84.5,73.2,62.0,69.5,64.9,60.8,97,77,53,30.01,29.93,14,1,14,0.00
2014-10-20,86.0,75.4,65.9,69.8,66.2,61.8,94,74,49,30.02,29.91,14,2,14,0.00
2014-10-21,84.0,75.5,69.9,71.3,68.3,66.0,92,79,62,29.95,29.87,6,1,7,0.00
2014-10-22,86.0,76.1,68.9,70.8,67.9,63.2,95,77,56,29.97,29.88,15,2,15,0.00
2014-10-23,83.7,73.6,65.0,66.8,62.6,59.4,84,70,49,29.95,29.85,19,5,19,0.00
2014-10-24,81.6,71.0,62.7,63.3,60.3,57.4,87,70,47,29.96,29.84,14,4,17,0.00
2014-10-25,76.5,66.3,61.2,60.5,57.6,55.5,86,74,55,29.98,29.91,16,3,16,0.00
2014-10-26,79.5,72.2,61.8,60.0,57.7,48.5,85,63,34,30.01,29.93,12,2,12,0.00
2014-10-27,83.7,68.0,59.0,63.3,58.4,54.9,90,74,41,30.09,29.98,12,3,12,0.00
2014-10-28,85.6,77.8,70.5,69.4,66.8,62.4,86,70,48,30.09,30.04,10,2,10,0.00
2014-10-29,82.5,75.2,67.5,71.8,68.4,64.7,94,80,57,30.08,29.97,12,2,12,0.00
2014-10-30,83.7,75.0,67.1,71.8,68.0,64.1,96,80,54,29.98,29.85,12,2,12,0.00
2014-10-31,75.6,72.1,69.9,70.7,62.5,52.6,95,73,51,29.91,29.81,20,5,20,0.03
2014-11-1,72.5,65.2,54.1,59.4,49.9,41.6,72,58,47,30.18,29.87,28,7,28,0.00
2014-11-2,65.8,55.4,46.9,45.6,41.2,37.1,81,61,37,30.30,30.18,17,4,17,0.00
2014-11-3,75.3,61.2,46.2,55.5,49.8,41.8,88,68,45,30.34,30.24,18,3,18,0.00
2014-11-4,79.7,66.4,56.1,62.2,57.8,53.4,91,76,47,30.29,30.13,18,3,18,0.00
2014-11-5,81.9,69.7,61.2,65.8,62.5,59.4,95,79,54,30.20,30.07,21,3,21,0.00
2014-11-6,82.3,72.3,66.1,69.6,66.0,63.4,95,82,56,30.12,29.97,12,2,12,0.00
2014-11-7,77.8,69.8,65.9,67.2,64.8,62.2,98,85,61,29.98,29.91,15,2,15,0.00
2014-11-8,65.3,60.9,59.5,62.0,59.2,57.8,96,94,89,29.90,29.85,12,4,12,1.05
2014-11-9,67.8,61.6,57.1,61.4,58.9,56.0,97,91,78,29.94,29.81,15,3,15,0.20
2014-11-10,73.7,65.9,59.7,61.6,59.3,54.8,95,80,56,29.98,29.92,17,3,17,0.00
2014-11-11,73.7,66.5,59.9,62.9,59.1,56.1,96,78,57,29.98,29.90,17,3,17,0.00
2014-11-12,75.7,65.9,56.3,60.0,56.4,51.9,94,74,45,30.06,29.95,13,2,13,0.00
2014-11-13,77.0,66.0,53.3,61.8,58.0,52.2,97,77,48,30.06,29.95,8,2,11,0.00
2014-11-14,66.3,62.9,55.4,64.5,57.7,50.6,97,84,68,30.14,29.98,15,4,15,0.00
2014-11-15,72.1,61.5,51.7,60.8,55.6,48.6,90,81,64,30.22,30.10,12,3,12,0.00
2014-11-16,82.0,69.9,59.8,69.8,64.8,58.6,97,85,64,30.18,30.01,13,3,13,0.00
2014-11-17,79.0,70.6,66.3,74.8,69.1,65.2,98,95,87,30.01,29.89,18,3,18,1.23
2014-11-18,69.7,55.8,48.0,69.1,50.0,41.4,98,81,65,30.28,29.97,22,6,22,0.06
2014-11-19,61.1,51.1,41.6,49.7,40.6,28.5,84,67,57,30.34,30.20,19,6,19,0.00
2014-11-20,67.7,56.6,46.4,50.2,46.5,42.6,90,71,51,30.26,30.12,16,5,16,0.00
2014-11-21,71.5,64.3,55.2,60.8,54.4,47.8,81,71,62,30.24,30.14,22,6,22,0.00
2014-11-22,79.1,72.4,66.6,70.1,66.4,60.8,91,82,72,30.18,30.02,26,8,26,0.00
2014-11-23,82.0,75.9,71.7,74.5,72.4,69.2,96,89,77,30.02,29.84,27,7,27,0.00
2014-11-24,79.6,75.2,72.7,76.2,73.4,71.3,98,94,88,29.99,29.88,18,4,18,0.00
2014-11-25,79.0,75.0,71.1,76.8,73.7,69.9,98,96,90,29.99,29.83,22,5,22,0.89
2014-11-26,72.3,60.4,47.9,71.4,54.5,43.4,98,82,60,30.23,29.82,28,6,28,0.31
2014-11-27,69.0,56.9,45.2,58.4,48.5,42.8,97,75,50,30.30,30.18,18,3,18,0.00
2014-11-28,62.2,52.5,44.6,44.9,38.9,34.4,81,61,37,30.34,30.21,19,4,19,0.00
2014-11-29,73.1,59.7,48.2,56.6,51.0,43.5,89,74,52,30.30,30.20,13,3,13,0.00
2014-11-30,78.2,65.5,53.4,61.3,57.6,51.7,95,77,53,30.31,30.20,18,3,18,0.00
2014-12-1,80.9,70.0,61.2,67.9,62.8,58.1,91,79,54,30.29,30.14,20,5,20,0.00
2014-12-2,78.5,70.5,63.8,69.3,65.7,62.3,96,85,71,30.20,30.07,19,4,19,0.00
2014-12-3,80.0,71.0,63.6,69.6,65.2,61.6,96,83,65,30.16,30.05,16,4,16,0.00
2014-12-4,81.2,71.3,62.9,67.9,64.5,60.5,93,80,61,30.18,30.07,18,5,18,0.00
2014-12-5,81.8,72.5,65.9,69.9,66.8,63.1,94,83,66,30.22,30.11,16,4,16,0.00
2014-12-6,79.7,70.9,65.1,71.4,67.5,64.1,97,89,73,30.20,30.09,13,2,13,0.00
2014-12-7,71.3,66.2,60.9,66.1,63.5,56.9,98,91,78,30.12,30.01,13,3,13,0.00
2014-12-8,68.2,62.7,58.4,62.2,59.5,55.9,94,89,79,30.11,30.01,18,4,18,0.00
2014-12-9,62.2,58.3,55.0,58.4,52.6,46.1,96,82,68,30.10,30.01,23,6,23,0.00
2014-12-10,65.2,55.1,43.7,52.7,47.5,41.4,94,77,54,30.15,30.06,13,2,13,0.00
2014-12-11,64.1,54.7,47.7,54.5,49.9,46.3,96,85,67,30.21,30.09,12,2,12,0.00
2014-12-12,58.9,52.3,47.5,50.5,43.3,37.6,96,74,47,30.28,30.16,7,2,8,0.00
2014-12-13,66.3,54.7,43.7,50.9,43.8,38.7,94,70,37,30.21,30.08,8,2,14,0.00
2014-12-14,67.4,56.0,44.5,50.0,45.7,39.4,96,71,39,30.13,30.04,9,2,9,0.00
2014-12-15,68.8,61.1,49.7,58.4,52.8,43.0,97,76,43,30.15,30.04,11,2,11,0.00
2014-12-16,69.2,58.0,45.7,61.8,54.7,45.2,99,89,70,30.21,30.12,9,1,12,0.01
2014-12-17,74.0,65.4,57.6,65.2,60.7,51.1,98,85,72,30.21,30.09,8,2,10,0.01
2014-12-18,67.7,57.8,47.5,58.8,53.4,46.3,97,86,71,30.20,30.06,12,2,12,0.00
2014-12-19,70.3,56.8,49.0,60.0,52.8,47.6,96,88,55,30.13,30.01,6,1,8,0.00
2014-12-20,76.8,65.4,54.7,65.1,59.3,51.5,96,82,59,30.10,30.00,12,2,12,0.00
2014-12-21,78.3,69.2,62.3,68.6,64.4,60.3,95,85,68,30.07,29.96,15,3,15,0.00
2014-12-22,76.8,73.8,71.1,71.3,70.2,69.4,95,89,80,29.99,29.88,22,6,22,0.01
2014-12-23,80.0,73.8,68.3,73.2,70.7,67.4,98,90,74,29.94,29.83,20,4,20,0.00
2014-12-24,78.4,73.9,66.7,74.1,70.8,61.9,97,90,84,29.98,29.80,26,7,26,0.24
2014-12-25,70.1,64.7,57.2,64.1,57.5,53.0,90,78,61,30.21,29.96,14,3,15,0.00
2014-12-26,73.1,62.8,54.3,61.9,55.7,51.1,90,79,60,30.22,30.14,12,4,12,0.00
2014-12-27,78.4,69.8,64.7,70.7,65.5,60.7,95,86,75,30.24,30.12,12,2,12,0.00
2014-12-28,77.7,71.0,64.0,70.9,67.4,63.1,98,89,75,30.16,30.06,13,2,13,0.00
2014-12-29,77.2,70.2,64.9,72.4,68.2,64.0,98,94,85,30.13,30.02,14,3,14,0.00
2014-12-30,75.7,70.1,66.3,72.9,68.8,66.0,99,96,87,30.19,30.07,13,3,13,0.14
2014-12-31,68.8,65.4,63.3,66.7,63.3,61.6,97,93,86,30.24,30.14,15,5,16,0.00
2015-1-1,74.2,66.4,60.6,68.3,64.1,60.0,98,93,81,30.23,30.11,11,3,11,0.00
2015-1-2,79.7,70.8,65.9,71.7,68.4,65.0,99,92,76,30.23,30.13,13,3,13,0.00